Buxhansa — A8TQ5 — position and weather

sailwx.info

Track history (hours):
 
Tides and Currents Weather Stations Pressure Air Temp Water Temp Dewpoint Dewpoint Depression Visibility Wind Speed Wind Dir Waves Ship Positions

Buxhansa

Last reported at 2017-May-23 19:20 UTC. Time now 2017-May-26 16:36 UTC.
Position N 01°54' E 102°23'.

Length 208 m; draft 11 m.

Type: Ship (hazmat cat A). MMSI: 636091849.

Date/timePositionNaut miles runAvg speedWind from/ knotsBaromVisibWave heightAir tempDewpointWater temp
2017-May-23 19:20N 01°54' E 102°23'917.8
2017-May-23 18:50N 01°50' E 102°32'6017.1
2017-May-23 15:18N 01°17' E 103°22'514.5
2017-May-23 14:59N 01°15' E 103°26'8 9.5
2017-May-23 14:05N 01°19' E 103°33'3 4.3
2017-May-23 13:29N 01°21' E 103°33'0 0.1
2017-May-23 12:33N 01°21' E 103°33'0 0.0
2017-May-23 12:24N 01°21' E 103°33'0 0.0
2017-May-23 11:47N 01°21' E 103°33'0 0.0
2017-May-23 11:27N 01°21' E 103°33'0 0.0
2017-May-23 10:53N 01°21' E 103°33'0 0.0
2017-May-23 09:56N 01°21' E 103°33'0 0.0
2017-May-23 09:19N 01°21' E 103°33'0 0.0
2017-May-23 08:55N 01°21' E 103°33'0 0.0
2017-May-23 08:28N 01°21' E 103°33'0 0.0
2017-May-23 07:58N 01°21' E 103°33'0 0.0
2017-May-23 06:54N 01°21' E 103°33'0 0.0
2017-May-23 06:24N 01°21' E 103°33'0 0.0
2017-May-23 05:48N 01°21' E 103°33'0 0.0
2017-May-23 05:24N 01°21' E 103°33'0 0.0
2017-May-23 04:56N 01°21' E 103°33'0 0.0
2017-May-23 04:23N 01°21' E 103°33'0 0.0
2017-May-23 03:59N 01°21' E 103°33'0 0.0
2017-May-23 03:29N 01°21' E 103°33'0 0.0
2017-May-23 02:53N 01°21' E 103°33'0 0.0
2017-May-23 02:22N 01°21' E 103°33'0 0.0
2017-May-23 01:46N 01°21' E 103°33'0 0.0
2017-May-23 01:28N 01°21' E 103°33'0 0.0
2017-May-23 00:46N 01°21' E 103°33'0 0.0
2017-May-23 00:28N 01°21' E 103°33'0 0.0
2017-May-22 23:51N 01°21' E 103°33'0 0.0
2017-May-22 22:54N 01°21' E 103°33'0 0.0
2017-May-22 22:27N 01°21' E 103°33'0 0.0
2017-May-22 21:56N 01°21' E 103°33'0 0.0
2017-May-22 20:59N 01°21' E 103°33'0 0.0
2017-May-22 20:02N 01°21' E 103°33'0 0.0
2017-May-22 19:44N 01°21' E 103°33'0 0.0
2017-May-22 19:16N 01°21' E 103°33'0 0.0
2017-May-22 18:58N 01°21' E 103°33'0 0.0
2017-May-22 18:13N 01°21' E 103°33'0 0.0
2017-May-22 17:49N 01°21' E 103°33'0 0.0
2017-May-22 17:24N 01°21' E 103°33'0 0.0
2017-May-22 17:00N 01°21' E 103°33'0 0.0
2017-May-22 16:24N 01°21' E 103°33'0 0.0
2017-May-22 15:54N 01°21' E 103°33'0 0.0
2017-May-22 15:24N 01°21' E 103°33'0 0.0
2017-May-22 14:53N 01°21' E 103°33'0 0.0
2017-May-22 14:00N 01°21' E 103°33'1 2.2
2017-May-22 13:30N 01°20' E 103°33'510.1
2017-May-22 12:59N 01°15' E 103°33'5 9.2
2017-May-22 12:29N 01°11' E 103°30'1 0.7
2017-May-22 11:14N 01°11' E 103°29'2 0.6
2017-May-22 07:53N 01°11' E 103°31'2 6.3
2017-May-22 07:30N 01°11' E 103°33'3 6.1
2017-May-22 07:00N 01°11' E 103°36'3 6.5
2017-May-22 06:30N 01°12' E 103°39'3 5.2
2017-May-22 06:00N 01°14' E 103°41'5 9.2
2017-May-22 05:30N 01°16' E 103°45'2 3.2
2017-May-22 05:00N 01°16' E 103°47'0 0.2
2017-May-22 04:26N 01°16' E 103°47'0 0.0
2017-May-22 03:56N 01°16' E 103°47'0 0.0
2017-May-22 03:19N 01°16' E 103°47'0 0.0
2017-May-22 02:55N 01°16' E 103°47'0 0.0
2017-May-22 02:22N 01°16' E 103°47'0 0.0
2017-May-22 01:55N 01°16' E 103°47'0 0.0
2017-May-22 01:28N 01°16' E 103°47'0 0.0
2017-May-22 00:57N 01°16' E 103°47'0 0.0
2017-May-22 00:27N 01°16' E 103°47'0 0.0
2017-May-21 23:51N 01°16' E 103°47'0 0.0
2017-May-21 23:30N 01°16' E 103°47'0 0.0
2017-May-21 22:59N 01°16' E 103°47'0 0.0
2017-May-21 22:29N 01°16' E 103°47'0 0.0
2017-May-21 21:52N 01°16' E 103°47'0 0.0
2017-May-21 21:27N 01°16' E 103°47'0 0.0
2017-May-21 21:00N 01°16' E 103°47'0 0.0
2017-May-21 20:30N 01°16' E 103°47'0 0.0
2017-May-21 19:57N 01°16' E 103°47'0 0.0
2017-May-21 19:27N 01°16' E 103°47'0 0.0
2017-May-21 18:59N 01°16' E 103°47'0 0.0
2017-May-21 18:29N 01°16' E 103°47'0 0.0
2017-May-21 17:59N 01°16' E 103°47'0 0.0
2017-May-21 17:29N 01°16' E 103°47'0 0.0
2017-May-21 16:59N 01°16' E 103°47'0 0.0
2017-May-21 16:28N 01°16' E 103°47'0 0.0
2017-May-21 15:58N 01°16' E 103°47'0 0.0
2017-May-21 15:28N 01°16' E 103°47'0 0.0
2017-May-21 14:58N 01°16' E 103°47'0 0.0
2017-May-21 14:30N 01°16' E 103°47'0 0.0
2017-May-21 13:27N 01°16' E 103°47'0 0.0
2017-May-21 12:57N 01°16' E 103°47'0 0.0
2017-May-21 12:27N 01°16' E 103°47'0 0.0
2017-May-21 11:56N 01°16' E 103°47'0 0.0
2017-May-21 11:29N 01°16' E 103°47'0 0.0
2017-May-21 10:59N 01°16' E 103°47'0 0.0
2017-May-21 10:26N 01°16' E 103°47'0 0.0
2017-May-21 10:00N 01°16' E 103°47'0 0.7
2017-May-21 09:30N 01°16' E 103°47'2 4.0
2017-May-21 08:57N 01°14' E 103°47'0 0.2
2017-May-21 08:20N 01°14' E 103°47'0 0.0
2017-May-21 07:41N 01°14' E 103°47'0 0.1
2017-May-21 07:29N 01°14' E 103°47'0 0.0
2017-May-21 06:50N 01°14' E 103°47'0 0.0
2017-May-21 06:26N 01°14' E 103°47'0 0.0
2017-May-21 05:49N 01°14' E 103°47'0 0.0
2017-May-21 05:31N 01°14' E 103°47'0 0.0
2017-May-21 05:01N 01°14' E 103°47'2 4.1
2017-May-21 04:30N 01°13' E 103°49'510.6
2017-May-21 03:59N 01°14' E 103°54'4 7.9
2017-May-21 03:26N 01°15' E 103°58'  
Track history (hours):
 
Tides and Currents Weather Stations Pressure Air Temp Water Temp Dewpoint Dewpoint Depression Visibility Wind Speed Wind Dir Waves Ship Positions

Buxhansa

Last reported at 2017-May-23 19:20 UTC. Time now 2017-May-26 16:36 UTC.
Position N 01°54' E 102°23'.

Length 208 m; draft 11 m.

Type: Ship (hazmat cat A). MMSI: 636091849.

Date/timePositionNaut miles runAvg speedWind from/ knotsBaromVisibWave heightAir tempDewpointWater temp
2017-May-23 19:20N 01°54' E 102°23'917.8
2017-May-23 18:50N 01°50' E 102°32'6017.1
2017-May-23 15:18N 01°17' E 103°22'514.5
2017-May-23 14:59N 01°15' E 103°26'8 9.5
2017-May-23 14:05N 01°19' E 103°33'3 4.3
2017-May-23 13:29N 01°21' E 103°33'0 0.1
2017-May-23 12:33N 01°21' E 103°33'0 0.0
2017-May-23 12:24N 01°21' E 103°33'0 0.0
2017-May-23 11:47N 01°21' E 103°33'0 0.0
2017-May-23 11:27N 01°21' E 103°33'0 0.0
2017-May-23 10:53N 01°21' E 103°33'0 0.0
2017-May-23 09:56N 01°21' E 103°33'0 0.0
2017-May-23 09:19N 01°21' E 103°33'0 0.0
2017-May-23 08:55N 01°21' E 103°33'0 0.0
2017-May-23 08:28N 01°21' E 103°33'0 0.0
2017-May-23 07:58N 01°21' E 103°33'0 0.0
2017-May-23 06:54N 01°21' E 103°33'0 0.0
2017-May-23 06:24N 01°21' E 103°33'0 0.0
2017-May-23 05:48N 01°21' E 103°33'0 0.0
2017-May-23 05:24N 01°21' E 103°33'0 0.0
2017-May-23 04:56N 01°21' E 103°33'0 0.0
2017-May-23 04:23N 01°21' E 103°33'0 0.0
2017-May-23 03:59N 01°21' E 103°33'0 0.0
2017-May-23 03:29N 01°21' E 103°33'0 0.0
2017-May-23 02:53N 01°21' E 103°33'0 0.0
2017-May-23 02:22N 01°21' E 103°33'0 0.0
2017-May-23 01:46N 01°21' E 103°33'0 0.0
2017-May-23 01:28N 01°21' E 103°33'0 0.0
2017-May-23 00:46N 01°21' E 103°33'0 0.0
2017-May-23 00:28N 01°21' E 103°33'0 0.0
2017-May-22 23:51N 01°21' E 103°33'0 0.0
2017-May-22 22:54N 01°21' E 103°33'0 0.0
2017-May-22 22:27N 01°21' E 103°33'0 0.0
2017-May-22 21:56N 01°21' E 103°33'0 0.0
2017-May-22 20:59N 01°21' E 103°33'0 0.0
2017-May-22 20:02N 01°21' E 103°33'0 0.0
2017-May-22 19:44N 01°21' E 103°33'0 0.0
2017-May-22 19:16N 01°21' E 103°33'0 0.0
2017-May-22 18:58N 01°21' E 103°33'0 0.0
2017-May-22 18:13N 01°21' E 103°33'0 0.0
2017-May-22 17:49N 01°21' E 103°33'0 0.0
2017-May-22 17:24N 01°21' E 103°33'0 0.0
2017-May-22 17:00N 01°21' E 103°33'0 0.0
2017-May-22 16:24N 01°21' E 103°33'0 0.0
2017-May-22 15:54N 01°21' E 103°33'0 0.0
2017-May-22 15:24N 01°21' E 103°33'0 0.0
2017-May-22 14:53N 01°21' E 103°33'0 0.0
2017-May-22 14:00N 01°21' E 103°33'1 2.2
2017-May-22 13:30N 01°20' E 103°33'510.1
2017-May-22 12:59N 01°15' E 103°33'5 9.2
2017-May-22 12:29N 01°11' E 103°30'1 0.7
2017-May-22 11:14N 01°11' E 103°29'2 0.6
2017-May-22 07:53N 01°11' E 103°31'2 6.3
2017-May-22 07:30N 01°11' E 103°33'3 6.1
2017-May-22 07:00N 01°11' E 103°36'3 6.5
2017-May-22 06:30N 01°12' E 103°39'3 5.2
2017-May-22 06:00N 01°14' E 103°41'5 9.2
2017-May-22 05:30N 01°16' E 103°45'2 3.2
2017-May-22 05:00N 01°16' E 103°47'0 0.2
2017-May-22 04:26N 01°16' E 103°47'0 0.0
2017-May-22 03:56N 01°16' E 103°47'0 0.0
2017-May-22 03:19N 01°16' E 103°47'0 0.0
2017-May-22 02:55N 01°16' E 103°47'0 0.0
2017-May-22 02:22N 01°16' E 103°47'0 0.0
2017-May-22 01:55N 01°16' E 103°47'0 0.0
2017-May-22 01:28N 01°16' E 103°47'0 0.0
2017-May-22 00:57N 01°16' E 103°47'0 0.0
2017-May-22 00:27N 01°16' E 103°47'0 0.0
2017-May-21 23:51N 01°16' E 103°47'0 0.0
2017-May-21 23:30N 01°16' E 103°47'0 0.0
2017-May-21 22:59N 01°16' E 103°47'0 0.0
2017-May-21 22:29N 01°16' E 103°47'0 0.0
2017-May-21 21:52N 01°16' E 103°47'0 0.0
2017-May-21 21:27N 01°16' E 103°47'0 0.0
2017-May-21 21:00N 01°16' E 103°47'0 0.0
2017-May-21 20:30N 01°16' E 103°47'0 0.0
2017-May-21 19:57N 01°16' E 103°47'0 0.0
2017-May-21 19:27N 01°16' E 103°47'0 0.0
2017-May-21 18:59N 01°16' E 103°47'0 0.0
2017-May-21 18:29N 01°16' E 103°47'0 0.0
2017-May-21 17:59N 01°16' E 103°47'0 0.0
2017-May-21 17:29N 01°16' E 103°47'0 0.0
2017-May-21 16:59N 01°16' E 103°47'0 0.0
2017-May-21 16:28N 01°16' E 103°47'0 0.0
2017-May-21 15:58N 01°16' E 103°47'0 0.0
2017-May-21 15:28N 01°16' E 103°47'0 0.0
2017-May-21 14:58N 01°16' E 103°47'0 0.0
2017-May-21 14:30N 01°16' E 103°47'0 0.0
2017-May-21 13:27N 01°16' E 103°47'0 0.0
2017-May-21 12:57N 01°16' E 103°47'0 0.0
2017-May-21 12:27N 01°16' E 103°47'0 0.0
2017-May-21 11:56N 01°16' E 103°47'0 0.0
2017-May-21 11:29N 01°16' E 103°47'0 0.0
2017-May-21 10:59N 01°16' E 103°47'0 0.0
2017-May-21 10:26N 01°16' E 103°47'0 0.0
2017-May-21 10:00N 01°16' E 103°47'0 0.7
2017-May-21 09:30N 01°16' E 103°47'2 4.0
2017-May-21 08:57N 01°14' E 103°47'0 0.2
2017-May-21 08:20N 01°14' E 103°47'0 0.0
2017-May-21 07:41N 01°14' E 103°47'0 0.1
2017-May-21 07:29N 01°14' E 103°47'0 0.0
2017-May-21 06:50N 01°14' E 103°47'0 0.0
2017-May-21 06:26N 01°14' E 103°47'0 0.0
2017-May-21 05:49N 01°14' E 103°47'0 0.0
2017-May-21 05:31N 01°14' E 103°47'0 0.0
2017-May-21 05:01N 01°14' E 103°47'2 4.1
2017-May-21 04:30N 01°13' E 103°49'510.6
2017-May-21 03:59N 01°14' E 103°54'4 7.9
2017-May-21 03:26N 01°15' E 103°58'  

Dump ship's entire track history